Terminal Aerodrome Forecast
Issued by NWS Charleston, WV

Current Version | Previous Version | Graphics & Text | Print | Product List | Glossary On
Versions: 1 2 3 4 5 6 7 8 9 10 11 12 13 14 15 16 17 18 19 20 21 22 23 24
954
FTUS41 KRLX 272059 AAA
TAFBKW
TAF AMD
KBKW 272059Z 2721/2818 25009G17KT P6SM SHRA VCTS BKN050CB
      TEMPO 2721/2722 3SM TSRA BKN035CB
     FM280000 22005KT P6SM BKN060
     FM280600 17007KT 6SM SHRA OVC040
     FM280800 20008KT 5SM SHRA OVC040
     FM280900 21008KT 4SM SHRA OVC025
     FM281200 VRB03KT 4SM SHRA OVC015
     FM281400 23005KT 4SM SHRA OVC025=

USA.gov is the U.S. government's official web portal to all federal, state and local government web resources and services.